Airfield :
LOGIN :

Register | Disclaimer

   EN    FR    IT 

 










Legend :    VFR   Marginal VFR   IFR   Intensive IFR   Very Intensive IFR
Visi :
Ceiling :
>= 8 km
>= 3000ft
5 to 8 km
1000 to 3000 ft
1500m to 5 km
500 to 1000 ft
800 to 1500m
200 to 500 ft
< 800m
< 200 ft
Symbols :   Thunderstorms  Fog  Heavy snow  Heavy precipitations  Wind > 20 kt
SIGMETs :     Misc.  Thunderstorms  Icing  Turbulence  Mountain Waves  Volcanic Ashes






- Airport Elevation : 359 ft
- IATA code : BVA


LFOB - Beauvais

CURRENT METAR :
  • 170030Z AUTO 24013KT 9999 FEW024 BKN160 OVC190 08/05 Q1013 NOSIG

EXPIRED METARs :
  • 170000Z AUTO 24014KT 9999 SCT024 OVC160 08/06 Q1013 NOSIG
  • 162330Z AUTO 24014KT 9999 BKN022 BKN028 OVC160 08/06 Q1012 NOSIG
  • 162300Z AUTO 24014KT 9999 FEW024 OVC160 08/06 Q1012 TEMPO 25015G25KT 3000 SHRA BKN013 BKN020TCU
  • 162230Z AUTO 23016KT 9999 SCT019 OVC150 08/06 Q1011 TEMPO 25015G25KT 3000 SHRA BKN013 BKN020TCU
  • 162200Z AUTO 24017KT 9999 FEW019 BKN033 BKN072 08/06 Q1011 TEMPO 25015G25KT 3000 SHRA BKN013 BKN020TCU

TAF TAF LFOB
Valid from the 17 at 00:00 until the 18 at 00:00 UTC


162300Z 1700/1724 23015G25KT 9999 SCT030
BECMG 1700/1703 22012KT
BECMG 1708/1710 23015G25KT
TEMPO 1710/1724 25020G35KT 3000 SHRA BKN030CB
ATIS : +33 3 44 11 49 28



MET'MAP, your aeronautical weather chart ! - Copyright ORBIFLY December 2007 - Disclaimer

ORBIFLY MET'MAP TEAM :

Programming & Development : Alexandra Zaïnal
Concept & original design : Baudouin d'Aumeries
Assistance for programming : Marc-Olivier Méhu
Technical & hardware support : Manuel Goepfert

Contact : metmap@orbifly.com




SOURCES & CREDITS :

   NOAA